Time;durP1;ratioP1;P1;durP2;ratioP2;P2;SDS_P1;SDS_P2;PMS_P1;PMS_P2;Temp;Humidity;BMP_temperature;BMP_pressure;BME280_temperature;BME280_humidity;BME280_pressure;Samples;Min_cycle;Max_cycle;Signal;HPM_P1;HPM_P2
2022/01/01 00:02:09;;;;;;;28.23;22.60;;;13.10;1.00;13.30;101380.00;;;;5032900;28;20980;-80
2022/01/01 00:04:58;;;;;;;20.07;18.03;;;13.20;1.00;13.30;101394.00;;;;5024272;28;20453;-78
2022/01/01 00:07:28;;;;;;;18.27;16.43;;;13.10;1.00;13.30;101391.00;;;;5025867;28;20450;-78
2022/01/01 00:09:56;;;;;;;18.43;16.37;;;13.10;1.00;13.30;101393.00;;;;5026174;28;20485;-76
2022/01/01 00:12:29;;;;;;;16.60;14.90;;;13.00;1.00;13.30;101381.00;;;;5026994;28;20454;-79
2022/01/01 00:14:57;;;;;;;18.23;16.30;;;13.20;1.00;13.30;101370.00;;;;5028126;28;20460;-79
2022/01/01 00:17:26;;;;;;;15.27;13.80;;;13.00;1.00;13.30;101367.00;;;;5036851;28;20471;-77
2022/01/01 00:19:54;;;;;;;15.60;13.20;;;13.00;1.00;13.20;101386.00;;;;5037720;28;20479;-78
2022/01/01 00:22:22;;;;;;;13.07;11.77;;;13.00;1.00;13.20;69203.00;;;;5027183;28;20532;-79
2022/01/01 00:24:52;;;;;;;12.27;11.00;;;13.00;1.00;13.20;101383.00;;;;5021234;28;20461;-79
2022/01/01 00:27:20;;;;;;;12.87;10.97;;;13.00;1.00;13.20;101375.00;;;;5025697;28;20952;-79
2022/01/01 00:29:49;;;;;;;14.93;11.67;;;13.00;1.00;13.30;69211.00;;;;5024645;28;20843;-80
2022/01/01 00:32:17;;;;;;;13.90;11.50;;;13.00;1.00;13.30;101360.00;;;;5020480;28;20454;-79
2022/01/01 00:34:46;;;;;;;14.03;12.40;;;13.10;1.00;13.30;69205.00;;;;5017827;28;20826;-78
2022/01/01 00:37:14;;;;;;;16.50;12.43;;;13.00;1.00;13.20;101359.00;;;;5014239;28;20461;-77
2022/01/01 00:39:42;;;;;;;14.07;11.70;;;13.00;1.00;13.20;101368.00;;;;5016981;28;20555;-78
2022/01/01 00:42:12;;;;;;;14.40;12.30;;;13.10;1.00;13.30;101358.00;;;;5022486;28;20471;-78
2022/01/01 00:44:40;;;;;;;13.20;11.70;;;13.10;1.00;13.30;101365.00;;;;5016535;28;21347;-78
2022/01/01 00:47:08;;;;;;;14.87;12.23;;;13.10;1.00;217.30;162437.00;;;;5018120;28;20453;-79
2022/01/01 00:49:37;;;;;;;14.23;12.50;;;13.10;1.00;13.30;69222.00;;;;5019908;28;21305;-80
2022/01/01 00:52:06;;;;;;;14.30;12.10;;;13.10;1.00;13.30;69220.00;;;;5019875;28;20445;-80
2022/01/01 00:54:34;;;;;;;12.77;11.53;;;13.10;1.00;13.30;69214.00;;;;5024732;28;20498;-81
2022/01/01 00:57:03;;;;;;;14.23;11.70;;;13.10;1.00;13.30;69214.00;;;;5024961;28;20446;-80
2022/01/01 00:59:33;;;;;;;13.10;11.80;;;13.10;1.00;13.30;101374.00;;;;5040928;28;21553;-79
2022/01/01 01:02:01;;;;;;;12.43;11.13;;;13.10;1.00;13.30;101388.00;;;;5020466;28;20487;-78
2022/01/01 01:04:30;;;;;;;13.13;11.00;;;13.00;1.00;13.20;101372.00;;;;5021877;28;20548;-79
2022/01/01 01:06:58;;;;;;;15.80;11.40;;;13.00;1.00;13.20;101381.00;;;;5022473;28;20484;-79
2022/01/01 01:09:27;;;;;;;11.27;10.10;;;13.00;1.00;13.30;69211.00;;;;5018263;28;20489;-78
2022/01/01 01:11:56;;;;;;;13.13;10.70;;;13.10;1.00;13.30;101380.00;;;;5018949;28;20468;-78
2022/01/01 01:14:27;;;;;;;11.23;10.10;;;13.10;1.00;13.20;101370.00;;;;5024333;28;20452;-79
2022/01/01 01:16:57;;;;;;;11.03;9.93;;;13.00;1.00;13.20;69206.00;;;;5027034;28;20449;-78
2022/01/01 01:19:26;;;;;;;13.17;10.47;;;13.10;1.00;13.30;101376.00;;;;5026299;28;21264;-78
2022/01/01 01:21:54;;;;;;;12.00;10.80;;;13.00;1.00;13.20;101373.00;;;;5034177;28;20496;-79
2022/01/01 01:24:24;;;;;;;13.00;10.33;;;13.00;1.00;13.30;101379.00;;;;5033525;28;20451;-78
2022/01/01 01:26:53;;;;;;;11.50;10.40;;;13.00;1.00;13.30;101374.00;;;;5033672;28;20465;-79
2022/01/01 01:29:23;;;;;;;11.50;10.40;;;13.00;1.00;13.20;101384.00;;;;5025629;28;20489;-79
2022/01/01 01:31:52;;;;;;;10.40;9.40;;;13.00;1.00;13.20;101371.00;;;;5023865;28;20480;-78
2022/01/01 01:34:21;;;;;;;10.70;9.60;;;12.90;1.00;13.30;69211.00;;;;5021435;28;20469;-79
2022/01/01 01:36:50;;;;;;;11.73;9.63;;;13.10;1.00;13.20;101386.00;;;;5024467;28;20453;-79
2022/01/01 01:39:18;;;;;;;10.80;9.70;;;13.10;1.00;13.30;101390.00;;;;5021111;28;20516;-79
2022/01/01 01:41:47;;;;;;;12.77;10.07;;;13.20;1.00;13.30;101400.00;;;;5022475;28;20485;-78
2022/01/01 01:44:29;;;;;;;10.57;9.47;;;13.10;1.00;13.30;69231.00;;;;5018064;28;20472;-78
2022/01/01 01:47:00;;;;;;;12.23;9.73;;;13.20;1.00;13.30;101419.00;;;;5022039;28;20507;-79
2022/01/01 01:49:30;;;;;;;12.57;9.80;;;13.10;1.00;13.30;101405.00;;;;5023808;28;20485;-79
2022/01/01 01:51:59;;;;;;;10.40;9.30;;;13.10;1.00;13.30;101407.00;;;;5020114;28;20465;-79
2022/01/01 01:54:27;;;;;;;11.33;9.30;;;13.20;1.00;13.40;101409.00;;;;5020867;28;20472;-79
2022/01/01 01:56:58;;;;;;;10.37;8.33;;;13.10;1.00;13.40;101416.00;;;;5021884;28;20468;-79
2022/01/01 01:59:27;;;;;;;12.47;9.70;;;13.20;1.00;13.30;101422.00;;;;5038764;28;20487;-77
2022/01/01 02:01:55;;;;;;;9.90;8.90;;;13.10;1.00;13.40;101416.00;;;;5026912;28;20473;-78
2022/01/01 02:04:24;;;;;;;10.30;9.30;;;13.20;1.00;13.30;69229.00;;;;5020361;28;20456;-78
2022/01/01 02:06:54;;;;;;;12.17;10.07;;;13.10;1.00;217.30;162449.00;;;;5020694;28;20502;-78
2022/01/01 02:09:23;;;;;;;9.80;7.93;;;13.20;1.00;13.40;101414.00;;;;5020010;28;20469;-78
2022/01/01 02:11:53;;;;;;;9.47;8.60;;;13.20;1.00;13.40;69237.00;;;;5019044;28;20457;-78
2022/01/01 02:14:32;;;;;;;11.20;9.20;;;13.20;1.00;13.40;101424.00;;;;5018237;28;20445;-78
2022/01/01 02:17:10;;;;;;;11.30;9.33;;;13.20;1.00;13.40;101387.00;;;;5023697;28;20464;-78
2022/01/01 02:19:50;;;;;;;12.80;9.70;;;13.20;1.00;13.30;101418.00;;;;5020329;28;20477;-77
2022/01/01 02:22:20;;;;;;;11.20;9.03;;;13.20;1.00;13.30;69226.00;;;;5028281;28;20484;-79
2022/01/01 02:24:48;;;;;;;10.50;9.40;;;13.40;1.00;13.30;101412.00;;;;5029601;28;20476;-78
2022/01/01 02:27:17;;;;;;;10.40;9.30;;;13.10;1.00;13.30;101411.00;;;;5029225;28;20457;-77
2022/01/01 02:29:46;;;;;;;11.17;9.50;;;13.10;1.00;13.30;101419.00;;;;5040357;28;21311;-79
2022/01/01 02:32:16;;;;;;;16.10;10.50;;;13.10;1.00;13.30;101403.00;;;;5027571;28;20472;-78
2022/01/01 02:34:45;;;;;;;11.80;9.20;;;13.10;1.00;13.20;101399.00;;;;5022091;28;20461;-78
2022/01/01 02:37:13;;;;;;;12.53;9.10;;;13.20;1.00;13.20;101398.00;;;;5018630;28;20457;-79
2022/01/01 02:39:42;;;;;;;8.63;7.60;;;13.00;1.00;13.20;101403.00;;;;5017808;28;20468;-78
2022/01/01 02:42:12;;;;;;;8.20;7.40;;;13.00;1.00;217.30;162396.00;;;;5018062;28;20480;-77
2022/01/01 02:44:43;;;;;;;9.00;7.77;;;13.00;1.00;217.30;162396.00;;;;5026811;28;20448;-77
2022/01/01 02:47:12;;;;;;;9.00;7.40;;;13.00;1.00;13.20;101412.00;;;;5045183;28;20456;-78
2022/01/01 02:49:41;;;;;;;8.57;7.67;;;12.90;1.00;13.20;101411.00;;;;5030551;28;20925;-79
2022/01/01 02:52:09;;;;;;;9.43;8.17;;;12.90;1.00;13.20;101403.00;;;;5021260;28;20461;-78
2022/01/01 02:54:37;;;;;;;10.73;8.00;;;12.90;1.00;13.10;101405.00;;;;5019075;28;20495;-78
2022/01/01 02:57:07;;;;;;;9.43;7.63;;;12.90;1.00;13.10;101408.00;;;;5018961;28;20548;-78
2022/01/01 02:59:35;;;;;;;9.07;7.10;;;12.90;1.00;13.10;101400.00;;;;5022447;28;20477;-78
2022/01/01 03:02:04;;;;;;;11.43;9.57;;;12.80;1.00;13.10;101410.00;;;;5018767;28;20473;-78
2022/01/01 03:04:32;;;;;;;8.83;7.93;;;12.80;1.00;13.10;101400.00;;;;5021616;28;20445;-79
2022/01/01 03:07:01;;;;;;;10.57;7.67;;;12.90;1.00;13.10;101404.00;;;;5026187;28;20454;-79
2022/01/01 03:09:34;;;;;;;8.60;7.23;;;12.90;1.00;13.10;101406.00;;;;5023037;28;20500;-78
2022/01/01 03:12:05;;;;;;;10.17;8.27;;;12.90;1.00;13.20;101410.00;;;;5020911;28;20944;-79
2022/01/01 03:14:35;;;;;;;9.50;8.50;;;12.90;1.00;13.20;69183.00;;;;5020894;28;20461;-78
2022/01/01 03:17:05;;;;;;;10.40;8.60;;;13.00;1.00;13.20;101419.00;;;;5024135;28;20468;-79
2022/01/01 03:19:33;;;;;;;9.63;8.63;;;13.00;1.00;13.20;101409.00;;;;5022280;28;20476;-78
2022/01/01 03:22:03;;;;;;;9.70;8.40;;;13.00;1.00;217.30;162352.00;;;;5024662;28;21009;-78
2022/01/01 03:24:31;;;;;;;9.87;8.67;;;12.90;1.00;13.20;101417.00;;;;5045802;28;20457;-79
2022/01/01 03:27:00;;;;;;;10.20;9.20;;;12.90;1.00;13.10;101405.00;;;;5030430;28;20929;-79
2022/01/01 03:29:30;;;;;;;11.33;10.13;;;12.90;1.00;13.20;101409.00;;;;5027897;28;20958;-78
2022/01/01 03:32:00;;;;;;;13.00;9.73;;;12.90;1.00;13.10;101405.00;;;;5028019;28;20469;-78
2022/01/01 03:34:28;;;;;;;12.20;9.80;;;12.90;1.00;13.10;101411.00;;;;5024696;28;20452;-78
2022/01/01 03:36:57;;;;;;;12.17;10.37;;;12.90;1.00;13.10;101415.00;;;;5019713;28;21282;-78
2022/01/01 03:39:27;;;;;;;10.70;9.60;;;12.90;1.00;13.10;101401.00;;;;5020526;28;20488;-79
2022/01/01 03:41:55;;;;;;;11.53;10.20;;;12.90;1.00;13.10;101405.00;;;;5020271;28;20477;-78
2022/01/01 03:44:23;;;;;;;10.90;9.60;;;12.90;1.00;13.10;69166.00;;;;5021759;28;20445;-79
2022/01/01 03:46:58;;;;;;;10.90;9.33;;;12.80;1.00;13.00;69160.00;;;;5022969;28;20454;-79
2022/01/01 03:49:27;;;;;;;11.80;10.60;;;12.70;1.00;13.00;101401.00;;;;5021613;28;20500;-80
2022/01/01 03:51:58;;;;;;;12.93;11.33;;;12.70;1.00;13.00;69151.00;;;;5022413;28;20471;-78
2022/01/01 03:54:26;;;;;;;13.07;10.60;;;12.70;1.00;13.00;101407.00;;;;5020691;28;20462;-79
2022/01/01 03:56:55;;;;;;;12.23;10.93;;;12.70;1.00;13.00;101403.00;;;;5021234;28;20437;-78
2022/01/01 03:59:25;;;;;;;13.63;11.90;;;12.70;1.00;13.00;101425.00;;;;5021461;28;20474;-79
2022/01/01 04:01:54;;;;;;;16.70;12.47;;;12.80;1.00;13.10;101432.00;;;;5022442;28;20519;-79
2022/01/01 04:04:25;;;;;;;15.30;12.60;;;12.80;1.00;13.10;101437.00;;;;5022227;28;20483;-79
2022/01/01 04:06:56;;;;;;;16.73;14.30;;;12.80;1.00;13.10;69174.00;;;;5027359;28;21213;-79
2022/01/01 04:09:24;;;;;;;16.57;13.50;;;12.80;1.00;13.10;101435.00;;;;5029258;28;20483;-78
2022/01/01 04:11:52;;;;;;;13.67;12.27;;;12.90;1.00;13.10;101425.00;;;;5027625;28;20467;-78
2022/01/01 04:14:20;;;;;;;15.87;14.13;;;12.90;1.00;13.10;101426.00;;;;5023636;28;20487;-78
2022/01/01 04:16:51;;;;;;;14.60;13.10;;;12.90;1.00;13.10;101418.00;;;;5021344;28;20458;-78
2022/01/01 04:19:22;;;;;;;14.70;13.17;;;12.90;1.00;13.10;101429.00;;;;5021864;28;20488;-76
2022/01/01 04:21:50;;;;;;;14.20;12.70;;;12.90;1.00;13.10;69180.00;;;;5019714;28;20884;-77
2022/01/01 04:24:20;;;;;;;14.30;12.07;;;12.90;1.00;13.10;101445.00;;;;5022728;28;20468;-78
2022/01/01 04:26:48;;;;;;;14.50;12.77;;;12.90;1.00;13.10;101435.00;;;;5028268;28;20466;-78
2022/01/01 04:29:17;;;;;;;17.03;13.77;;;12.80;1.00;13.10;69172.00;;;;5030973;28;20553;-78
2022/01/01 04:31:45;;;;;;;17.90;14.07;;;12.80;1.00;13.10;101439.00;;;;5041751;28;20825;-79
2022/01/01 04:34:14;;;;;;;18.43;14.20;;;12.80;1.00;13.10;101438.00;;;;5033784;28;20484;-78
2022/01/01 04:36:48;;;;;;;17.90;15.07;;;12.90;1.00;13.10;101449.00;;;;5023662;28;20464;-78
2022/01/01 04:39:17;;;;;;;14.50;12.50;;;12.90;1.00;217.30;162352.00;;;;5021132;28;20473;-78
2022/01/01 04:41:47;;;;;;;13.83;12.30;;;12.90;1.00;13.10;69174.00;;;;5021896;28;20468;-79
2022/01/01 04:44:15;;;;;;;13.57;12.17;;;12.90;1.00;13.10;101462.00;;;;5050091;28;20437;-78
2022/01/01 04:46:43;;;;;;;15.20;12.10;;;12.90;1.00;13.10;69180.00;;;;5045638;28;21050;-78
2022/01/01 04:49:11;;;;;;;14.67;12.00;;;12.90;1.00;13.20;101453.00;;;;5048442;28;20540;-78
2022/01/01 04:51:40;;;;;;;14.93;12.30;;;12.90;1.00;13.20;101447.00;;;;5042195;28;20484;-78
2022/01/01 04:54:15;;;;;;;13.60;12.20;;;12.90;1.00;13.20;101446.00;;;;5028437;28;21033;-78
2022/01/01 04:56:47;;;;;;;15.90;13.00;;;13.00;1.00;13.20;69192.00;;;;5025951;28;20839;-78
2022/01/01 04:59:17;;;;;;;14.23;12.20;;;13.00;1.00;13.20;101428.00;;;;5027480;28;20471;-79
2022/01/01 05:01:46;;;;;;;15.50;13.07;;;13.00;1.00;13.20;69194.00;;;;5019413;28;20790;-78
2022/01/01 05:04:15;;;;;;;14.43;12.93;;;13.00;1.00;13.20;101444.00;;;;5020665;28;20507;-79
2022/01/01 05:06:49;;;;;;;13.60;12.20;;;13.00;1.00;13.20;101420.00;;;;5017902;28;20457;-79
2022/01/01 05:09:17;;;;;;;15.47;13.30;;;13.00;1.00;217.30;162384.00;;;;5023916;28;20470;-79
2022/01/01 05:11:48;;;;;;;15.00;13.50;;;12.90;1.00;13.20;101436.00;;;;5023169;28;20947;-78
2022/01/01 05:14:17;;;;;;;16.17;12.60;;;12.90;1.00;217.30;162362.00;;;;5026726;28;20457;-79
2022/01/01 05:16:46;;;;;;;13.93;11.50;;;12.90;1.00;13.20;101432.00;;;;5033411;28;20457;-79
2022/01/01 05:19:16;;;;;;;14.97;12.30;;;12.90;1.00;13.10;101431.00;;;;5029577;28;20488;-78
2022/01/01 05:21:44;;;;;;;15.20;11.90;;;12.90;1.00;13.20;101436.00;;;;5019724;28;20452;-78
2022/01/01 05:24:17;;;;;;;13.10;11.80;;;12.90;1.00;13.10;101444.00;;;;5029405;28;20473;-78
2022/01/01 05:26:48;;;;;;;15.07;11.57;;;12.90;1.00;13.20;69186.00;;;;5029550;28;20507;-78
2022/01/01 05:29:16;;;;;;;14.30;11.77;;;12.90;1.00;13.20;69188.00;;;;5042476;28;20460;-78
2022/01/01 05:31:44;;;;;;;15.00;12.37;;;12.90;1.00;13.20;69194.00;;;;5036443;28;20503;-77
2022/01/01 05:34:12;;;;;;;13.83;12.23;;;13.00;1.00;13.20;101444.00;;;;5027196;28;20973;-79
2022/01/01 05:36:40;;;;;;;13.90;11.73;;;12.90;1.00;13.20;101456.00;;;;5027783;28;20465;-77
2022/01/01 05:39:09;;;;;;;14.90;13.30;;;12.90;1.00;13.20;101448.00;;;;5026706;28;20508;-78
2022/01/01 05:41:37;;;;;;;12.80;11.50;;;13.00;1.00;13.20;101440.00;;;;5021272;28;20549;-78
2022/01/01 05:44:07;;;;;;;14.97;11.77;;;12.90;1.00;13.20;101457.00;;;;5019752;28;20533;-80
2022/01/01 05:46:35;;;;;;;15.33;12.70;;;12.90;1.00;13.10;101453.00;;;;5018076;28;20453;-79
2022/01/01 05:49:04;;;;;;;13.27;11.73;;;12.90;1.00;13.10;101445.00;;;;5020611;28;20557;-79
2022/01/01 05:51:32;;;;;;;16.30;11.67;;;12.90;1.00;13.10;101432.00;;;;5027373;28;20460;-79
2022/01/01 05:54:00;;;;;;;15.87;12.80;;;12.90;1.00;13.10;101446.00;;;;5025292;28;20463;-77
2022/01/01 05:56:29;;;;;;;14.10;12.53;;;12.80;1.00;13.00;69154.00;;;;5025033;28;20472;-78
2022/01/01 05:58:57;;;;;;;15.30;13.53;;;12.80;1.00;13.00;101455.00;;;;5025920;28;20476;-79
2022/01/01 06:01:27;;;;;;;13.30;11.90;;;12.70;1.00;13.00;69151.00;;;;5025930;28;20515;-79
2022/01/01 06:03:55;;;;;;;13.03;11.63;;;12.70;1.00;12.90;101446.00;;;;5024603;28;20911;-78
2022/01/01 06:06:24;;;;;;;15.77;13.23;;;12.70;1.00;12.90;101448.00;;;;5023070;28;20457;-79
2022/01/01 06:09:00;;;;;;;14.33;12.17;;;12.60;1.00;12.90;69118.00;;;;5024697;28;20472;-79
2022/01/01 06:11:28;;;;;;;16.10;13.97;;;12.60;1.00;217.30;162223.00;;;;5025635;28;20448;-79
2022/01/01 06:13:57;;;;;;;16.03;12.80;;;12.60;1.00;12.90;101444.00;;;;5024478;28;20446;-79
2022/01/01 06:16:26;;;;;;;18.63;13.70;;;12.50;1.00;12.80;69107.00;;;;5021739;28;20468;-79
2022/01/01 06:18:54;;;;;;;15.47;12.70;;;12.50;1.00;12.80;101433.00;;;;5020959;28;20883;-79
2022/01/01 06:21:25;;;;;;;16.63;13.13;;;12.40;1.00;12.70;101441.00;;;;5027561;28;20453;-78
2022/01/01 06:23:54;;;;;;;15.63;13.70;;;12.40;1.00;12.70;101449.00;;;;5028166;28;20473;-79
2022/01/01 06:26:22;;;;;;;13.33;11.73;;;12.40;1.00;12.80;69099.00;;;;5025899;28;20463;-79
2022/01/01 06:28:50;;;;;;;15.03;12.20;;;12.50;1.00;12.80;101445.00;;;;5022608;28;20477;-78
2022/01/01 06:31:18;;;;;;;13.70;12.13;;;12.60;1.00;12.70;101439.00;;;;5024643;28;20460;-79
2022/01/01 06:33:48;;;;;;;16.80;12.00;;;12.40;1.00;12.70;69077.00;;;;5028666;28;20978;-77
2022/01/01 06:36:17;;;;;;;15.87;13.63;;;12.40;1.00;12.70;101439.00;;;;5047683;28;20457;-78
2022/01/01 06:38:46;;;;;;;14.53;13.00;;;12.40;1.00;12.60;101448.00;;;;5026834;28;20839;-77
2022/01/01 06:41:15;;;;;;;15.60;13.10;;;12.30;1.00;12.60;101440.00;;;;5028065;28;21208;-79
2022/01/01 06:43:44;;;;;;;16.90;13.20;;;12.20;1.00;12.50;69043.00;;;;5033041;28;20487;-79
2022/01/01 06:46:12;;;;;;;15.30;13.70;;;12.20;1.00;12.50;101442.00;;;;5035962;28;20445;-77
2022/01/01 06:48:40;;;;;;;17.97;14.43;;;12.10;1.00;12.40;69019.00;;;;5035367;28;20539;-78
2022/01/01 06:51:10;;;;;;;14.87;13.27;;;12.10;1.00;12.40;101436.00;;;;5038960;28;20457;-79
2022/01/01 06:53:38;;;;;;;15.10;13.60;;;12.30;1.00;217.30;162076.00;;;;5036029;28;20468;-79
2022/01/01 06:56:06;;;;;;;16.97;13.57;;;12.10;1.00;12.40;101451.00;;;;5031289;28;20459;-78
2022/01/01 06:58:35;;;;;;;19.80;14.87;;;12.20;1.00;12.40;69024.00;;;;5039539;28;20472;-77
2022/01/01 07:01:04;;;;;;;17.83;13.60;;;12.10;1.00;12.50;101463.00;;;;5043414;28;20437;-78
2022/01/01 07:03:33;;;;;;;16.00;13.77;;;12.10;1.00;12.50;101476.00;;;;5047601;28;20776;-78
2022/01/01 07:06:02;;;;;;;14.67;13.07;;;12.10;1.00;12.50;101483.00;;;;5031176;28;20486;-78
2022/01/01 07:08:31;;;;;;;17.93;14.90;;;12.20;1.00;12.50;101472.00;;;;5025779;28;20995;-78
2022/01/01 07:10:59;;;;;;;16.00;14.23;;;12.20;1.00;12.60;101488.00;;;;5023863;28;20477;-78
2022/01/01 07:13:28;;;;;;;14.90;13.07;;;12.20;1.00;12.60;69057.00;;;;5027004;28;20475;-78
2022/01/01 07:15:56;;;;;;;13.83;12.27;;;12.30;1.00;12.60;101490.00;;;;5025840;28;20453;-78
2022/01/01 07:18:24;;;;;;;16.50;13.60;;;12.30;1.00;12.60;69060.00;;;;5028186;28;20492;-79
2022/01/01 07:20:52;;;;;;;18.13;15.70;;;12.30;1.00;12.60;101517.00;;;;5024658;28;20458;-78
2022/01/01 07:23:21;;;;;;;14.67;12.93;;;12.30;1.00;12.70;69077.00;;;;5018990;28;20457;-77
2022/01/01 07:25:50;;;;;;;16.80;15.00;;;12.40;1.00;12.70;101520.00;;;;5017102;28;20454;-78
2022/01/01 07:28:19;;;;;;;15.37;13.60;;;12.40;1.00;12.80;69106.00;;;;5021689;28;20465;-77
2022/01/01 07:30:47;;;;;;;15.60;13.90;;;12.50;1.00;12.80;101524.00;;;;5018298;28;20456;-78
2022/01/01 07:33:16;;;;;;;16.40;14.53;;;12.50;1.00;12.90;101520.00;;;;5021847;28;20449;-78
2022/01/01 07:35:44;;;;;;;16.80;13.70;;;12.60;1.00;12.90;101538.00;;;;5020218;28;20457;-78
2022/01/01 07:38:13;;;;;;;15.73;14.07;;;12.60;1.00;12.90;101540.00;;;;5022414;28;20487;-78
2022/01/01 07:40:42;;;;;;;17.67;14.90;;;12.70;1.00;12.90;101542.00;;;;5017832;28;20518;-77
2022/01/01 07:43:13;;;;;;;17.00;14.57;;;12.60;1.00;12.90;101542.00;;;;5017809;28;20448;-77
2022/01/01 07:45:42;;;;;;;18.23;15.50;;;12.60;1.00;12.80;101546.00;;;;5019493;28;20480;-77
2022/01/01 07:48:12;;;;;;;17.23;13.90;;;12.60;1.00;12.80;101545.00;;;;5023394;28;20477;-78
2022/01/01 07:50:40;;;;;;;17.10;14.77;;;12.50;1.00;12.90;101547.00;;;;5027811;28;20479;-78
2022/01/01 07:53:10;;;;;;;16.87;15.07;;;12.50;1.00;12.80;101553.00;;;;5024635;28;20508;-77
2022/01/01 07:55:38;;;;;;;17.07;14.93;;;12.60;1.00;12.90;69123.00;;;;5017737;28;20468;-77
2022/01/01 07:58:08;;;;;;;16.27;14.57;;;12.60;1.00;12.90;69124.00;;;;5017310;28;20840;-77
2022/01/01 08:00:37;;;;;;;16.60;14.80;;;12.60;1.00;12.80;101555.00;;;;5016045;28;20460;-78
2022/01/01 08:03:06;;;;;;;16.10;13.77;;;12.60;1.00;12.80;101568.00;;;;5032139;28;20464;-78
2022/01/01 08:05:34;;;;;;;18.20;14.50;;;12.50;1.00;12.90;101562.00;;;;5016813;28;21002;-78
2022/01/01 08:08:04;;;;;;;20.37;14.70;;;12.70;1.00;12.90;101559.00;;;;5016805;28;21385;-77
2022/01/01 08:10:34;;;;;;;16.70;14.90;;;12.60;1.00;12.90;101555.00;;;;5020059;28;20456;-77
2022/01/01 08:13:03;;;;;;;19.03;15.27;;;12.60;1.00;13.00;101549.00;;;;5013695;28;20476;-78
2022/01/01 08:15:32;;;;;;;18.07;14.57;;;12.50;1.00;13.00;101563.00;;;;5015665;28;20518;-77
2022/01/01 08:18:02;;;;;;;16.87;14.03;;;12.70;1.00;13.00;101574.00;;;;5017113;28;20488;-78
2022/01/01 08:20:38;;;;;;;16.13;13.20;;;12.80;1.00;13.00;101567.00;;;;5033595;28;20468;-77
2022/01/01 08:23:06;;;;;;;17.87;14.57;;;12.70;1.00;13.10;101552.00;;;;5042629;28;20453;-77
2022/01/01 08:25:35;;;;;;;18.50;13.13;;;12.80;1.00;13.20;101554.00;;;;5032273;28;20997;-78
2022/01/01 08:28:04;;;;;;;15.50;12.90;;;12.90;1.00;13.10;101539.00;;;;5019399;28;20538;-78
2022/01/01 08:30:32;;;;;;;15.10;12.60;;;12.90;1.00;13.20;101539.00;;;;5019512;28;20448;-78
2022/01/01 08:33:02;;;;;;;15.73;14.13;;;12.90;1.00;13.20;101535.00;;;;5018191;28;20462;-78
2022/01/01 08:35:31;;;;;;;14.70;13.10;;;12.90;1.00;13.20;101521.00;;;;5018191;28;20469;-77
2022/01/01 08:38:01;;;;;;;17.80;13.23;;;12.90;1.00;13.20;101554.00;;;;5016115;28;20459;-78
2022/01/01 08:40:30;;;;;;;17.17;13.30;;;13.00;1.00;13.30;101547.00;;;;5019377;28;20461;-78
2022/01/01 08:42:59;;;;;;;15.97;13.10;;;13.00;1.00;13.30;101553.00;;;;5019015;28;20457;-78
2022/01/01 08:45:33;;;;;;;15.83;12.63;;;13.10;1.00;13.40;101547.00;;;;5018423;28;20470;-78
2022/01/01 08:48:03;;;;;;;14.13;11.80;;;13.10;1.00;13.50;101545.00;;;;5015455;28;20461;-77
2022/01/01 08:50:31;;;;;;;14.20;12.63;;;13.20;1.00;13.60;101537.00;;;;5032031;28;20460;-79
2022/01/01 08:52:59;;;;;;;14.63;11.97;;;13.30;1.00;13.70;101541.00;;;;5024421;28;20463;-78
2022/01/01 08:55:29;;;;;;;14.83;12.07;;;13.40;1.00;13.80;101546.00;;;;5029979;28;20456;-79
2022/01/01 08:57:58;;;;;;;15.00;12.60;;;13.50;1.00;13.90;101537.00;;;;5027549;28;20465;-78
2022/01/01 09:00:47;;;;;;;16.10;12.93;;;13.60;1.00;14.00;101528.00;;;;5031449;28;20449;-79
2022/01/01 09:03:17;;;;;;;13.77;12.00;;;13.70;1.00;14.00;101525.00;;;;5021207;28;21102;-79
2022/01/01 09:05:45;;;;;;;14.20;12.10;;;13.80;1.00;14.00;101526.00;;;;5018510;28;20488;-79
2022/01/01 09:08:38;;;;;;;12.70;11.33;;;13.80;1.00;14.00;101531.00;;;;5016528;28;20993;-79
2022/01/01 09:11:07;;;;;;;13.20;11.30;;;13.80;1.00;14.00;101527.00;;;;5015255;28;20453;-77
2022/01/01 09:13:37;;;;;;;12.97;11.67;;;13.80;1.00;14.10;101500.00;;;;5016261;28;20461;-78
2022/01/01 09:16:05;;;;;;;13.67;11.80;;;13.90;1.00;14.00;101537.00;;;;5030765;28;20537;-78
2022/01/01 09:18:36;;;;;;;14.07;12.60;;;13.90;1.00;14.10;101542.00;;;;5016942;28;20570;-77
2022/01/01 09:21:04;;;;;;;13.00;11.60;;;13.90;1.00;14.10;101535.00;;;;5019101;28;20455;-79
2022/01/01 09:23:32;;;;;;;16.13;14.47;;;13.90;1.00;14.20;101540.00;;;;5023287;28;20461;-79
2022/01/01 09:26:01;;;;;;;13.90;12.40;;;14.00;1.00;14.20;101538.00;;;;5018770;28;20465;-78
2022/01/01 09:28:31;;;;;;;14.07;12.57;;;14.00;1.00;14.00;101535.00;;;;5030046;28;20472;-78
2022/01/01 09:31:01;;;;;;;13.47;12.03;;;13.80;1.00;14.10;101529.00;;;;5034949;28;20464;-79
2022/01/01 09:33:31;;;;;;;15.60;13.00;;;13.80;1.00;14.10;101536.00;;;;5022009;28;20868;-77
2022/01/01 09:36:04;;;;;;;16.90;13.43;;;13.80;1.00;14.00;101536.00;;;;5021933;28;20571;-78
2022/01/01 09:38:34;;;;;;;14.57;12.30;;;13.80;1.00;14.00;101539.00;;;;5020932;28;20477;-78
2022/01/01 09:41:03;;;;;;;16.27;13.00;;;13.70;1.00;14.00;101545.00;;;;5016428;28;20448;-78
2022/01/01 09:43:33;;;;;;;13.93;12.50;;;13.80;1.00;14.00;101542.00;;;;5015935;28;20454;-78
2022/01/01 09:46:02;;;;;;;16.07;12.50;;;13.80;1.00;14.10;101533.00;;;;5020086;28;20473;-78
2022/01/01 09:48:31;;;;;;;18.23;13.60;;;13.80;1.00;14.10;101527.00;;;;5024567;28;20499;-78
2022/01/01 09:51:03;;;;;;;14.30;12.80;;;13.90;1.00;14.00;101541.00;;;;5020082;28;20458;-77
2022/01/01 09:53:33;;;;;;;14.10;12.60;;;13.80;1.00;13.90;101543.00;;;;5020056;28;20533;-78
2022/01/01 09:56:03;;;;;;;17.53;13.37;;;13.70;1.00;13.80;101550.00;;;;5023451;28;20453;-78
2022/01/01 09:58:35;;;;;;;15.20;13.50;;;13.60;1.00;13.70;101548.00;;;;5021233;28;20556;-78
2022/01/01 10:01:06;;;;;;;16.03;14.27;;;13.40;1.00;13.60;101521.00;;;;5044524;28;21084;-78
2022/01/01 10:03:37;;;;;;;16.27;13.43;;;13.40;1.00;13.60;69290.00;;;;5043925;28;21162;-78
2022/01/01 10:06:09;;;;;;;16.10;13.73;;;13.30;1.00;13.60;101554.00;;;;5021961;28;20465;-78
2022/01/01 10:08:38;;;;;;;15.00;13.30;;;13.30;1.00;13.80;101554.00;;;;5022155;28;20488;-78
2022/01/01 10:11:07;;;;;;;16.33;13.70;;;13.40;1.00;13.80;101550.00;;;;5021921;28;20548;-78
2022/01/01 10:13:39;;;;;;;15.00;12.30;;;13.50;1.00;13.80;101555.00;;;;5015045;28;20557;-77
2022/01/01 10:16:10;;;;;;;14.40;12.20;;;13.50;1.00;13.80;101557.00;;;;5029939;28;20465;-78
2022/01/01 10:18:40;;;;;;;15.40;12.67;;;13.50;1.00;13.90;101562.00;;;;5012346;28;20558;-78
2022/01/01 10:21:13;;;;;;;14.40;12.87;;;13.60;1.00;14.00;101557.00;;;;5015665;28;20518;-78
2022/01/01 10:23:44;;;;;;;15.90;13.40;;;13.70;1.00;14.00;101555.00;;;;5012109;28;20452;-78
2022/01/01 10:29:13;;;;;;;13.87;12.47;;;13.90;1.00;14.20;101558.00;;;;5019062;28;20468;-78
2022/01/01 10:31:56;;;;;;;13.70;12.27;;;13.90;1.00;14.20;101554.00;;;;5015740;28;20456;-78
2022/01/01 10:34:28;;;;;;;15.80;12.53;;;14.00;1.00;14.30;101546.00;;;;5015382;28;20460;-77
2022/01/01 10:37:00;;;;;;;14.63;13.03;;;14.10;1.00;14.30;101551.00;;;;5016221;28;20979;-77
2022/01/01 10:39:28;;;;;;;17.90;14.10;;;14.00;1.00;14.30;69442.00;;;;5019819;28;20476;-78
2022/01/01 10:41:59;;;;;;;14.30;12.80;;;14.20;1.00;14.30;101542.00;;;;5021590;28;20544;-78
2022/01/01 10:44:31;;;;;;;14.40;12.90;;;14.00;1.00;14.40;101536.00;;;;5017101;28;20832;-78
2022/01/01 10:47:00;;;;;;;14.43;13.03;;;14.30;1.00;14.50;101548.00;;;;5020095;28;20484;-78
2022/01/01 10:49:39;;;;;;;14.73;13.23;;;14.20;1.00;14.50;101536.00;;;;5017845;28;20470;-79
2022/01/01 10:52:22;;;;;;;15.00;12.37;;;14.30;1.00;14.50;101551.00;;;;5019332;28;20440;-80
2022/01/01 10:54:54;;;;;;;18.70;13.13;;;14.30;1.00;14.40;101548.00;;;;5021687;28;20500;-81
2022/01/01 10:57:25;;;;;;;14.80;13.00;;;14.20;1.00;14.40;101558.00;;;;5023553;28;20442;-79